createdAt,value
2022-08-19T00:04:13.917Z,16.45
2022-08-19T00:09:19.340Z,16.59
2022-08-19T00:14:27.102Z,16.70
2022-08-19T00:19:30.856Z,16.69
2022-08-19T00:24:34.717Z,16.81
2022-08-19T00:29:38.537Z,16.90
2022-08-19T00:34:45.265Z,16.76
2022-08-19T00:39:49.162Z,16.82
2022-08-19T00:44:53.135Z,16.71
2022-08-19T00:49:59.975Z,16.73
2022-08-19T00:55:07.200Z,16.61
2022-08-19T01:00:14.901Z,16.57
2022-08-19T01:05:23.759Z,16.50
2022-08-19T01:10:36.090Z,16.46
2022-08-19T01:15:48.078Z,16.48
2022-08-19T01:20:52.484Z,16.54
2022-08-19T01:25:58.363Z,16.39
2022-08-19T01:31:07.107Z,16.36
2022-08-19T01:36:15.603Z,16.31
2022-08-19T01:41:19.736Z,16.51
2022-08-19T01:46:25.085Z,16.49
2022-08-19T01:51:28.932Z,16.80
2022-08-19T01:56:41.729Z,16.70
2022-08-19T02:01:45.930Z,16.75
2022-08-19T02:06:49.954Z,16.83
2022-08-19T02:11:53.268Z,16.75
2022-08-19T02:16:56.779Z,16.57
2022-08-19T02:22:01.629Z,16.83
2022-08-19T02:27:07.658Z,16.80
2022-08-19T02:32:10.778Z,16.92
2022-08-19T02:37:35.125Z,16.85
2022-08-19T02:42:39.499Z,16.82
2022-08-19T02:47:42.625Z,16.89
2022-08-19T02:52:48.456Z,16.70
2022-08-19T02:57:54.550Z,16.93
2022-08-19T03:02:58.015Z,16.89
2022-08-19T03:08:01.345Z,16.75
2022-08-19T03:13:04.958Z,16.77
2022-08-19T03:18:09.675Z,16.82
2022-08-19T03:23:14.499Z,16.78
2022-08-19T03:28:18.173Z,16.73
2022-08-19T03:33:28.528Z,16.73
2022-08-19T03:38:32.076Z,16.76
2022-08-19T03:43:41.163Z,16.81
2022-08-19T03:48:45.648Z,16.81
2022-08-19T03:53:51.419Z,16.59
2022-08-19T03:58:55.503Z,16.70
2022-08-19T04:04:00.633Z,16.77
2022-08-19T04:09:06.789Z,16.91
2022-08-19T04:14:12.541Z,16.88
2022-08-19T04:19:17.053Z,16.88
2022-08-19T04:24:21.109Z,16.91
2022-08-19T04:29:26.921Z,16.87
2022-08-19T04:34:31.402Z,16.93
2022-08-19T04:39:58.707Z,16.90
2022-08-19T04:45:14.669Z,16.83
2022-08-19T04:50:18.108Z,17.01
2022-08-19T04:55:21.420Z,16.92
2022-08-19T05:00:25.456Z,17.05
2022-08-19T05:05:28.664Z,17.05
2022-08-19T05:10:32.555Z,16.98
2022-08-19T05:15:36.625Z,16.98
2022-08-19T05:21:01.140Z,17.06
2022-08-19T05:26:05.327Z,17.23
2022-08-19T05:31:11.421Z,17.18
2022-08-19T05:36:15.904Z,17.17
2022-08-19T05:41:19.178Z,17.32
2022-08-19T05:46:28.141Z,17.21
2022-08-19T05:51:31.470Z,17.21
2022-08-19T05:56:38.402Z,17.22
2022-08-19T06:01:52.387Z,17.31
2022-08-19T06:06:56.194Z,17.12
2022-08-19T06:12:01.594Z,17.20
2022-08-19T06:17:07.046Z,17.32
2022-08-19T06:22:13.263Z,17.41
2022-08-19T06:27:17.813Z,17.29
2022-08-19T06:32:21.005Z,17.25
2022-08-19T06:37:24.482Z,17.36
2022-08-19T06:42:27.965Z,17.41
2022-08-19T06:47:31.485Z,17.60
2022-08-19T06:52:38.178Z,17.79
2022-08-19T06:57:41.711Z,17.65
2022-08-19T07:02:49.721Z,17.49
2022-08-19T07:08:04.631Z,17.70
2022-08-19T07:13:09.835Z,17.58
2022-08-19T07:18:12.932Z,17.44
2022-08-19T07:23:16.582Z,17.61
2022-08-19T07:28:24.280Z,17.61
2022-08-19T07:33:28.640Z,17.85
2022-08-19T07:38:35.257Z,18.41
2022-08-19T07:43:39.494Z,19.03
2022-08-19T07:48:44.780Z,18.96
2022-08-19T07:53:49.244Z,18.84
2022-08-19T08:04:21.324Z,18.23
2022-08-19T08:09:33.918Z,17.82
2022-08-19T08:14:45.609Z,17.71
2022-08-19T08:19:52.455Z,17.59
2022-08-19T08:24:55.588Z,17.84
2022-08-19T08:30:00.111Z,17.87
2022-08-19T08:35:08.733Z,17.91
2022-08-19T08:40:31.348Z,17.90
2022-08-19T08:45:40.904Z,17.93
2022-08-19T08:50:52.282Z,17.86
2022-08-19T08:55:55.379Z,17.94
2022-08-19T09:00:59.520Z,18.06
2022-08-19T09:06:19.786Z,18.18
2022-08-19T09:11:44.621Z,18.21
2022-08-19T09:16:47.749Z,18.58
2022-08-19T09:21:52.185Z,18.42
2022-08-19T09:26:55.557Z,18.59
2022-08-19T09:32:01.010Z,18.56
2022-08-19T09:37:05.513Z,18.42
2022-08-19T09:42:16.645Z,18.32
2022-08-19T09:47:37.980Z,18.28
2022-08-19T09:52:57.233Z,18.60
2022-08-19T09:58:04.073Z,18.91
2022-08-19T10:03:08.654Z,19.88
2022-08-19T10:08:14.045Z,20.34
2022-08-19T10:13:20.453Z,21.12
2022-08-19T10:18:26.316Z,20.37
2022-08-19T10:23:33.782Z,20.05
2022-08-19T10:28:39.526Z,20.44
2022-08-19T10:33:53.608Z,19.73
2022-08-19T10:39:02.975Z,19.81
2022-08-19T10:44:09.660Z,19.56
2022-08-19T10:49:17.218Z,20.50
2022-08-19T10:54:29.529Z,21.20
2022-08-19T10:59:37.276Z,21.58
2022-08-19T11:04:42.690Z,21.44
2022-08-19T11:09:48.425Z,21.48
2022-08-19T11:14:51.710Z,22.41
2022-08-19T11:19:54.891Z,24.33
2022-08-19T11:24:58.222Z,24.67
2022-08-19T11:30:02.364Z,23.24
2022-08-19T11:35:10.763Z,23.50
2022-08-19T11:40:13.927Z,21.73
2022-08-19T11:45:18.518Z,22.32
2022-08-19T11:50:22.148Z,22.24
2022-08-19T11:55:25.694Z,21.83
2022-08-19T12:00:28.987Z,21.19
2022-08-19T12:05:32.609Z,21.25
2022-08-19T12:10:39.181Z,21.03
2022-08-19T12:15:43.372Z,21.28
2022-08-19T12:26:19.797Z,21.43
2022-08-19T12:37:15.595Z,23.59
2022-08-19T12:42:32.403Z,23.78
2022-08-19T12:48:33.656Z,23.48
2022-08-19T12:53:40.971Z,22.87
2022-08-19T12:59:01.680Z,22.60
2022-08-19T13:04:34.050Z,21.37
2022-08-19T13:09:49.757Z,21.33
2022-08-19T13:15:48.119Z,22.00
2022-08-19T13:21:32.086Z,22.94
2022-08-19T13:26:45.190Z,22.01
2022-08-19T13:32:07.480Z,20.37
2022-08-19T13:37:11.626Z,20.49
2022-08-19T13:42:15.992Z,21.22
2022-08-19T13:47:20.849Z,20.90
2022-08-19T13:52:24.531Z,22.22
2022-08-19T13:57:29.748Z,21.46
2022-08-19T14:03:12.471Z,20.92
2022-08-19T14:14:22.140Z,22.29
2022-08-19T14:26:35.669Z,21.33
2022-08-19T14:32:07.189Z,20.28
2022-08-19T14:44:35.476Z,20.72
2022-08-19T14:56:08.179Z,23.14
2022-08-19T15:07:53.459Z,20.91
2022-08-19T15:31:38.140Z,21.89
2022-08-19T15:36:43.033Z,20.82
2022-08-19T15:41:52.256Z,20.04
2022-08-19T15:46:58.478Z,20.03
2022-08-19T15:52:03.185Z,19.65
2022-08-19T15:57:25.633Z,19.75
2022-08-19T16:02:53.514Z,19.99
2022-08-19T16:07:58.505Z,19.88
2022-08-19T16:13:03.195Z,19.88
2022-08-19T16:18:07.313Z,19.74
2022-08-19T16:23:13.733Z,19.89
2022-08-19T16:28:21.814Z,20.04
2022-08-19T16:40:58.036Z,18.99
2022-08-19T17:03:54.752Z,18.28
2022-08-19T17:09:02.744Z,18.13
2022-08-19T17:14:07.669Z,18.05
2022-08-19T17:19:12.169Z,18.47
2022-08-19T17:24:17.153Z,18.42
2022-08-19T17:35:48.848Z,18.42
2022-08-19T17:42:10.313Z,18.07
2022-08-19T17:48:06.723Z,17.81
2022-08-19T18:05:35.442Z,17.83
2022-08-19T18:11:06.242Z,17.55
2022-08-19T18:16:24.837Z,17.71
2022-08-19T18:21:51.385Z,17.28
2022-08-19T18:28:05.197Z,17.20
2022-08-19T18:32:51.220Z,17.21
2022-08-19T18:38:47.085Z,17.40
2022-08-19T18:44:15.088Z,17.30
2022-08-19T18:55:00.979Z,16.86
2022-08-19T19:00:27.866Z,17.02
2022-08-19T19:06:01.038Z,17.00
2022-08-19T19:16:50.915Z,16.36
2022-08-19T19:22:09.821Z,16.16
2022-08-19T19:27:50.872Z,15.91
2022-08-19T19:32:57.392Z,15.97
2022-08-19T19:38:00.801Z,16.02
2022-08-19T19:43:07.065Z,15.98
2022-08-19T19:48:10.777Z,15.99
2022-08-19T19:53:15.922Z,16.12
2022-08-19T19:58:21.257Z,16.05
2022-08-19T20:03:32.754Z,16.02
2022-08-19T20:08:55.372Z,16.08
2022-08-19T20:14:01.961Z,16.02
2022-08-19T20:19:05.369Z,16.01
2022-08-19T20:24:10.484Z,15.98
2022-08-19T20:29:40.051Z,15.94
2022-08-19T20:34:41.145Z,15.97
2022-08-19T20:39:44.264Z,16.09
2022-08-19T20:44:47.546Z,15.95
2022-08-19T20:49:52.280Z,15.96
2022-08-19T20:54:55.386Z,15.91
2022-08-19T20:59:58.577Z,15.93
2022-08-19T21:05:06.095Z,15.89
2022-08-19T21:10:09.805Z,15.95
2022-08-19T21:15:13.633Z,15.95
2022-08-19T21:20:16.920Z,15.87
2022-08-19T21:25:20.521Z,15.84
2022-08-19T21:30:23.859Z,15.78
2022-08-19T21:35:26.965Z,15.94
2022-08-19T21:40:30.290Z,15.82
2022-08-19T21:45:34.952Z,15.89
2022-08-19T21:50:38.103Z,15.94
2022-08-19T21:55:42.534Z,15.83
2022-08-19T22:00:45.922Z,15.88
2022-08-19T22:05:49.105Z,15.84
2022-08-19T22:10:52.500Z,15.80
2022-08-19T22:15:56.122Z,15.95
2022-08-19T22:20:59.663Z,15.79
2022-08-19T22:26:03.104Z,15.85
2022-08-19T22:31:06.777Z,15.94
2022-08-19T22:36:12.557Z,15.83
2022-08-19T22:41:17.107Z,15.85
2022-08-19T22:46:21.112Z,15.96
2022-08-19T22:51:43.169Z,15.91
2022-08-19T22:56:46.707Z,15.98
2022-08-19T23:01:50.081Z,15.99
2022-08-19T23:06:53.655Z,15.97
2022-08-19T23:11:57.119Z,16.09
2022-08-19T23:17:02.259Z,15.92
2022-08-19T23:22:06.007Z,16.01
2022-08-19T23:27:28.096Z,15.95
2022-08-19T23:32:36.011Z,15.97
2022-08-19T23:37:40.079Z,15.89
2022-08-19T23:42:47.336Z,15.74
2022-08-19T23:47:50.531Z,15.70
2022-08-19T23:52:56.488Z,15.86
2022-08-19T23:58:03.581Z,15.95
